Time;durP1;ratioP1;P1;durP2;ratioP2;P2;SDS_P1;SDS_P2;PMS_P1;PMS_P2;Temp;Humidity;BMP_temperature;BMP_pressure;BME280_temperature;BME280_humidity;BME280_pressure;Samples;Min_cycle;Max_cycle;Signal;HPM_P1;HPM_P2
2021/06/30 00:01:10;;;;;;;12.45;8.82;;;;;;;25.68;54.89;94611.03;2987512;39;20059;-80
2021/06/30 00:03:17;;;;;;;13.18;9.50;;;;;;;25.64;54.71;94612.63;2993873;39;20047;-81
2021/06/30 00:05:23;;;;;;;11.57;9.45;;;;;;;25.61;54.79;94615.78;2990903;39;20056;-79
2021/06/30 00:07:26;;;;;;;15.97;10.00;;;;;;;25.59;55.09;94617.91;2988677;39;20095;-80
2021/06/30 00:09:33;;;;;;;14.20;8.48;;;;;;;25.58;55.20;94620.88;2988390;39;20067;-81
2021/06/30 00:11:40;;;;;;;10.93;9.38;;;;;;;25.54;55.09;94617.88;2987678;39;20064;-80
2021/06/30 00:13:46;;;;;;;11.98;9.15;;;;;;;25.53;55.27;94630.50;2991052;39;20131;-80
2021/06/30 00:15:54;;;;;;;14.10;9.77;;;;;;;25.52;55.16;94625.38;2992915;39;20057;-78
2021/06/30 00:18:01;;;;;;;15.68;8.85;;;;;;;25.50;55.14;94622.13;2983217;39;20040;-82
2021/06/30 00:20:09;;;;;;;10.57;8.25;;;;;;;25.51;54.99;94621.06;2993176;39;20073;-79
2021/06/30 00:22:15;;;;;;;11.45;8.43;;;;;;;25.51;54.86;94623.75;2983851;39;20384;-80
2021/06/30 00:24:22;;;;;;;12.60;8.00;;;;;;;25.48;55.01;94624.25;2991166;39;20143;-82
2021/06/30 00:26:29;;;;;;;12.40;8.40;;;;;;;25.45;55.05;94622.91;2978884;39;20059;-81
2021/06/30 00:28:35;;;;;;;11.57;8.52;;;;;;;25.40;55.17;94624.72;2993341;39;20051;-80
2021/06/30 00:30:42;;;;;;;13.52;8.45;;;;;;;25.43;54.97;94629.59;2983378;39;20048;-79
2021/06/30 00:32:49;;;;;;;13.05;8.07;;;;;;;25.40;55.42;94622.03;2988516;39;20095;-80
2021/06/30 00:34:56;;;;;;;12.25;8.30;;;;;;;25.40;55.25;94625.50;2983368;39;20055;-80
2021/06/30 00:37:03;;;;;;;13.18;8.73;;;;;;;25.37;55.19;94619.88;2992984;39;20038;-80
2021/06/30 00:39:11;;;;;;;12.68;8.32;;;;;;;25.40;55.30;94630.88;2990923;39;20051;-80
2021/06/30 00:41:18;;;;;;;13.43;8.43;;;;;;;25.41;55.22;94627.16;2988432;39;20415;-79
2021/06/30 00:43:19;;;;;;;13.43;8.05;;;;;;;25.40;55.46;94627.41;2993057;39;20043;-79
2021/06/30 00:45:26;;;;;;;12.70;8.70;;;;;;;25.38;55.44;94630.31;2983388;39;20074;-79
2021/06/30 00:47:33;;;;;;;13.48;8.73;;;;;;;25.41;55.43;94634.38;2983382;39;20434;-79
2021/06/30 00:49:40;;;;;;;13.25;8.60;;;;;;;25.41;55.65;94639.75;2986232;39;20046;-73
2021/06/30 00:51:46;;;;;;;11.18;8.38;;;;;;;25.38;55.44;94637.56;2989376;39;20165;-72
2021/06/30 00:53:54;;;;;;;13.13;8.13;;;;;;;25.34;55.66;94638.06;2980374;39;20055;-71
2021/06/30 00:56:00;;;;;;;10.05;7.93;;;;;;;25.31;55.44;94651.97;2975683;39;20113;-72
2021/06/30 00:58:07;;;;;;;12.30;9.57;;;;;;;25.30;55.79;94646.88;2977096;39;20144;-72
2021/06/30 01:00:14;;;;;;;12.98;8.95;;;;;;;25.28;55.67;94640.97;2991934;39;20099;-72
2021/06/30 01:02:41;;;;;;;13.70;9.43;;;;;;;25.25;55.66;94642.28;2989864;39;20074;-72
2021/06/30 01:04:48;;;;;;;13.40;8.93;;;;;;;25.25;55.55;94647.66;2992054;39;20106;-72
2021/06/30 01:06:55;;;;;;;9.27;8.35;;;;;;;25.23;55.86;94638.22;2992268;39;20055;-72
2021/06/30 01:09:04;;;;;;;12.18;8.52;;;;;;;25.25;55.78;94644.97;2988456;39;20063;-72
2021/06/30 01:11:11;;;;;;;12.65;8.55;;;;;;;25.26;55.72;94638.53;2981872;39;20660;-80
2021/06/30 01:13:18;;;;;;;11.40;8.60;;;;;;;25.25;55.61;94625.38;2990767;39;20325;-80
2021/06/30 01:15:19;;;;;;;11.75;7.93;;;;;;;25.26;55.36;94641.22;2989023;39;20058;-81
2021/06/30 01:17:26;;;;;;;11.65;8.15;;;;;;;25.26;55.44;94635.84;2992304;39;20448;-81
2021/06/30 01:19:37;;;;;;;14.07;8.77;;;;;;;25.26;55.25;94624.31;2975597;39;20101;-81
2021/06/30 01:21:44;;;;;;;11.35;8.57;;;;;;;25.26;55.50;94633.16;2983369;39;20355;-81
2021/06/30 01:23:46;;;;;;;13.48;8.27;;;;;;;25.27;55.56;94624.03;2984071;39;20180;-80
2021/06/30 01:25:54;;;;;;;9.60;8.18;;;;;;;25.24;55.92;94621.88;2983787;39;20109;-79
2021/06/30 01:28:01;;;;;;;11.27;8.13;;;;;;;25.27;55.48;94623.25;2992817;39;20031;-79
2021/06/30 01:30:05;;;;;;;10.85;8.77;;;;;;;25.26;55.31;94613.59;2982530;39;20398;-79
2021/06/30 01:32:12;;;;;;;9.90;8.05;;;;;;;25.28;55.29;94616.84;2990225;39;20127;-78
2021/06/30 01:34:19;;;;;;;11.48;8.77;;;;;;;25.31;55.33;94622.47;2983381;39;20059;-81
2021/06/30 01:36:26;;;;;;;11.10;8.93;;;;;;;25.34;55.67;94619.31;2983769;39;20417;-81
2021/06/30 01:38:32;;;;;;;10.18;8.20;;;;;;;25.33;55.70;94625.72;2991204;39;20066;-82
2021/06/30 01:40:42;;;;;;;11.70;8.85;;;;;;;25.37;55.26;94630.59;2995503;39;20058;-79
2021/06/30 01:42:50;;;;;;;13.70;9.55;;;;;;;25.36;55.36;94629.78;2982181;39;20396;-80
2021/06/30 01:44:57;;;;;;;14.43;9.25;;;;;;;25.34;55.54;94626.56;2979266;39;20059;-81
2021/06/30 01:46:58;;;;;;;12.07;8.52;;;;;;;25.28;55.82;94630.25;2988755;39;20065;-80
2021/06/30 01:49:05;;;;;;;15.15;8.93;;;;;;;24.94;56.31;94628.50;2992794;39;20158;-80
2021/06/30 01:51:12;;;;;;;15.82;9.05;;;;;;;24.79;57.00;94640.91;2979108;39;20320;-72
2021/06/30 01:53:19;;;;;;;11.52;8.50;;;;;;;24.53;57.83;94640.56;2983498;39;20155;-71
2021/06/30 01:55:25;;;;;;;13.43;8.73;;;;;;;24.16;58.79;94635.75;2992400;39;20447;-72
2021/06/30 01:57:32;;;;;;;12.20;9.02;;;;;;;24.05;59.24;94631.31;2992502;39;20122;-72
2021/06/30 01:59:40;;;;;;;16.65;8.68;;;;;;;24.09;59.25;94640.44;2992027;39;20147;-72
2021/06/30 02:01:46;;;;;;;10.98;8.57;;;;;;;24.11;59.21;94636.50;2985973;39;20066;-71
2021/06/30 02:03:57;;;;;;;13.65;9.13;;;;;;;24.15;59.03;94636.78;2992519;39;20063;-71
2021/06/30 02:06:03;;;;;;;11.15;9.15;;;;;;;24.18;59.32;94639.00;2992429;39;20039;-73
2021/06/30 02:08:10;;;;;;;13.13;7.93;;;;;;;24.26;58.76;94643.09;2979386;39;20148;-72
2021/06/30 02:10:18;;;;;;;10.70;8.88;;;;;;;24.37;58.34;94639.53;2983864;39;20051;-72
2021/06/30 02:12:24;;;;;;;12.23;9.15;;;;;;;24.48;58.24;94640.50;2992084;39;20468;-71
2021/06/30 02:14:31;;;;;;;12.57;8.48;;;;;;;24.57;57.94;94640.91;2981807;39;20122;-72
2021/06/30 02:16:38;;;;;;;10.23;8.45;;;;;;;24.67;57.47;94641.00;2982733;39;20071;-72
2021/06/30 02:18:44;;;;;;;15.57;8.73;;;;;;;24.76;57.35;94639.53;2983864;39;20043;-73
2021/06/30 02:20:51;;;;;;;12.20;9.18;;;;;;;24.83;57.26;94642.03;2983727;39;20351;-71
2021/06/30 02:22:58;;;;;;;15.68;9.15;;;;;;;24.84;57.20;94639.09;2981257;39;20324;-72
2021/06/30 02:25:09;;;;;;;13.82;9.55;;;;;;;24.81;57.13;94641.47;2982458;39;20079;-73
2021/06/30 02:27:16;;;;;;;12.48;8.60;;;;;;;24.80;57.01;94642.50;2983483;39;20055;-72
2021/06/30 02:29:23;;;;;;;12.20;8.48;;;;;;;24.84;57.14;94649.81;2986505;39;20103;-73
2021/06/30 02:31:30;;;;;;;12.30;8.88;;;;;;;24.79;57.26;94648.94;2983664;39;20073;-72
2021/06/30 02:33:37;;;;;;;11.77;9.32;;;;;;;24.76;57.68;94649.44;2980830;39;20073;-74
2021/06/30 02:35:44;;;;;;;11.40;9.50;;;;;;;24.60;57.66;94645.75;2983934;39;20059;-74
2021/06/30 02:37:52;;;;;;;12.35;9.73;;;;;;;24.15;58.86;94646.69;2983952;39;20119;-73
2021/06/30 02:39:59;;;;;;;13.27;9.13;;;;;;;23.54;60.58;94660.69;2983872;39;20385;-71
2021/06/30 02:42:05;;;;;;;14.95;9.48;;;;;;;23.40;60.99;94660.16;2983349;39;20043;-72
2021/06/30 02:44:12;;;;;;;13.35;9.48;;;;;;;23.04;62.40;94661.38;2983285;39;20368;-72
2021/06/30 02:46:19;;;;;;;11.63;9.30;;;;;;;22.95;62.69;94654.72;2982973;39;20103;-72
2021/06/30 02:48:26;;;;;;;13.35;9.18;;;;;;;23.02;62.32;94666.94;2979967;39;20052;-74
2021/06/30 02:50:33;;;;;;;11.45;9.07;;;;;;;23.19;61.95;94666.16;2981143;39;20400;-73
2021/06/30 02:52:39;;;;;;;12.07;9.88;;;;;;;23.41;61.26;94663.66;2975068;39;20059;-72
2021/06/30 02:54:46;;;;;;;12.65;9.75;;;;;;;23.59;60.77;94665.28;2983853;39;20083;-72
2021/06/30 02:56:52;;;;;;;13.05;9.20;;;;;;;23.71;60.80;94656.16;2983691;39;20318;-72
2021/06/30 02:58:59;;;;;;;13.65;9.13;;;;;;;23.79;60.16;94664.84;2978897;39;20033;-71
2021/06/30 03:01:06;;;;;;;23.75;9.32;;;;;;;23.89;59.68;94662.34;2981432;39;20064;-74
2021/06/30 03:03:13;;;;;;;12.05;9.60;;;;;;;23.77;59.75;94672.31;2978711;39;20083;-73
2021/06/30 03:05:20;;;;;;;13.07;9.32;;;;;;;23.49;60.81;94671.28;2982888;39;20043;-73
2021/06/30 03:07:21;;;;;;;14.00;9.70;;;;;;;23.56;60.47;94674.63;2983636;39;20098;-72
2021/06/30 03:09:28;;;;;;;12.73;10.13;;;;;;;23.68;60.24;94678.03;2983487;39;20071;-72
2021/06/30 03:11:30;;;;;;;11.43;9.77;;;;;;;23.83;59.74;94676.69;2976399;39;20060;-75
2021/06/30 03:13:36;;;;;;;11.90;9.63;;;;;;;23.93;59.53;94682.22;2985275;39;20387;-74
2021/06/30 03:15:43;;;;;;;19.17;11.00;;;;;;;23.98;59.30;94684.16;2992004;39;20055;-73
2021/06/30 03:17:49;;;;;;;13.77;10.90;;;;;;;24.03;59.42;94678.91;2991681;39;20075;-72
2021/06/30 03:19:56;;;;;;;16.05;13.20;;;;;;;24.14;59.01;94677.22;2983140;39;20429;-80
2021/06/30 03:22:03;;;;;;;15.50;12.50;;;;;;;24.21;58.72;94680.50;2992657;39;20051;-81
2021/06/30 03:24:12;;;;;;;18.73;15.65;;;;;;;24.27;58.49;94680.34;2994424;39;20071;-81
2021/06/30 03:26:22;;;;;;;19.00;13.55;;;;;;;24.27;58.74;94683.03;2992812;39;20035;-79
2021/06/30 03:28:29;;;;;;;16.13;12.82;;;;;;;24.31;58.36;94681.47;2993958;39;20059;-81
2021/06/30 03:30:35;;;;;;;17.45;12.25;;;;;;;24.38;58.58;94677.81;2993454;39;20075;-79
2021/06/30 03:32:42;;;;;;;17.35;12.25;;;;;;;24.38;58.32;94672.47;2989172;39;20473;-80
2021/06/30 03:34:44;;;;;;;17.02;11.32;;;;;;;24.43;58.41;94667.97;2984467;39;20121;-80
2021/06/30 03:36:50;;;;;;;17.20;11.95;;;;;;;24.51;58.33;94667.59;2987351;39;20144;-81
2021/06/30 03:38:52;;;;;;;16.20;10.68;;;;;;;24.58;57.95;94654.03;2990533;39;20350;-80
2021/06/30 03:40:59;;;;;;;14.90;11.82;;;;;;;24.66;57.85;94650.94;2993772;39;20067;-80
2021/06/30 03:43:06;;;;;;;15.75;11.43;;;;;;;24.75;57.69;94662.03;2985239;39;20072;-80
2021/06/30 03:45:12;;;;;;;14.73;11.45;;;;;;;24.75;57.37;94659.34;2993938;39;20063;-79
2021/06/30 03:47:19;;;;;;;14.32;10.52;;;;;;;24.82;57.18;94662.63;2993647;39;20055;-80
2021/06/30 03:49:26;;;;;;;15.88;11.35;;;;;;;24.82;56.59;94665.31;2994170;39;20047;-81
2021/06/30 03:51:33;;;;;;;14.10;11.98;;;;;;;24.80;57.02;94675.50;2985234;39;20060;-82
2021/06/30 03:53:39;;;;;;;14.50;11.50;;;;;;;24.86;57.15;94673.66;2989835;39;20143;-79
2021/06/30 03:55:46;;;;;;;12.48;11.07;;;;;;;24.87;56.43;94686.81;2986210;39;20052;-81
2021/06/30 03:57:53;;;;;;;12.30;10.98;;;;;;;24.93;56.74;94679.69;2992579;39;20083;-71
2021/06/30 03:59:59;;;;;;;13.80;10.40;;;;;;;24.98;56.46;94677.03;2992548;39;20043;-73
2021/06/30 04:02:06;;;;;;;11.93;10.73;;;;;;;24.90;56.53;94678.28;2991599;39;20051;-71
2021/06/30 04:04:14;;;;;;;12.77;10.50;;;;;;;24.91;56.53;94685.28;2975820;39;20112;-74
2021/06/30 04:06:21;;;;;;;16.33;10.35;;;;;;;24.90;56.87;94686.31;2992320;39;20075;-74
2021/06/30 04:08:28;;;;;;;11.57;10.38;;;;;;;24.99;56.32;94683.22;2978261;39;20047;-72
2021/06/30 04:10:30;;;;;;;14.15;10.20;;;;;;;25.03;56.18;94674.41;2992759;39;20423;-73
2021/06/30 04:12:36;;;;;;;14.38;11.00;;;;;;;24.95;56.34;94677.53;2992935;39;20134;-73
2021/06/30 04:14:43;;;;;;;16.70;10.50;;;;;;;24.81;57.02;94670.94;2992997;39;20049;-71
2021/06/30 04:16:50;;;;;;;15.98;12.05;;;;;;;24.77;57.21;94670.63;2987146;39;20031;-72
2021/06/30 04:18:56;;;;;;;25.63;17.58;;;;;;;24.81;57.05;94668.25;2992509;39;20296;-72
2021/06/30 04:21:08;;;;;;;18.95;12.38;;;;;;;24.68;57.65;94664.06;2992850;39;20072;-72
2021/06/30 04:23:15;;;;;;;29.27;19.63;;;;;;;24.77;57.39;94672.50;2993566;39;20043;-72
2021/06/30 04:25:22;;;;;;;17.77;12.05;;;;;;;24.87;57.11;94668.06;2983990;39;20103;-72
2021/06/30 04:27:28;;;;;;;15.25;11.52;;;;;;;24.86;57.22;94681.72;2983749;39;20423;-72
2021/06/30 04:29:35;;;;;;;15.63;10.85;;;;;;;24.39;58.70;94680.25;2992494;39;20435;-72
2021/06/30 04:31:37;;;;;;;13.13;11.30;;;;;;;24.32;58.53;94693.00;2992105;39;20043;-71
2021/06/30 04:33:43;;;;;;;13.63;11.32;;;;;;;23.55;60.95;94696.25;2978203;39;20047;-72
2021/06/30 04:35:50;;;;;;;15.80;11.93;;;;;;;23.57;60.97;94691.47;2992675;39;20086;-81
2021/06/30 04:37:57;;;;;;;14.10;11.65;;;;;;;23.36;61.92;94688.44;2993596;39;20053;-72
2021/06/30 04:40:04;;;;;;;18.58;12.00;;;;;;;23.60;61.08;94691.00;2992424;39;20086;-72
2021/06/30 04:42:11;;;;;;;18.38;11.48;;;;;;;23.48;61.27;94683.03;2979771;39;20067;-72
2021/06/30 04:44:18;;;;;;;15.95;12.07;;;;;;;23.63;60.98;94687.84;2992337;39;20079;-71
2021/06/30 04:46:24;;;;;;;15.23;11.40;;;;;;;23.63;61.23;94687.84;2992084;39;20069;-74
2021/06/30 04:48:31;;;;;;;15.48;12.07;;;;;;;23.74;61.00;94691.50;2992559;39;20134;-73
2021/06/30 04:50:38;;;;;;;16.92;11.43;;;;;;;23.99;60.26;94697.31;2993149;39;20432;-74
2021/06/30 04:52:44;;;;;;;15.98;11.40;;;;;;;24.27;59.73;94688.38;2992745;39;20371;-72
2021/06/30 04:54:51;;;;;;;16.80;12.40;;;;;;;24.48;59.22;94683.34;2990683;39;20086;-73
2021/06/30 04:56:57;;;;;;;19.13;12.15;;;;;;;24.58;58.89;94678.13;2988168;39;20051;-72
2021/06/30 04:59:04;;;;;;;14.05;10.88;;;;;;;24.79;58.38;94678.41;2983723;39;20123;-73
2021/06/30 05:01:11;;;;;;;19.55;12.07;;;;;;;24.96;57.46;94673.81;2982523;39;20180;-73
2021/06/30 05:03:17;;;;;;;18.35;11.55;;;;;;;25.04;57.27;94683.28;2976447;39;20067;-73
2021/06/30 05:05:24;;;;;;;13.88;12.30;;;;;;;24.94;57.61;94676.72;2992642;39;20047;-72
2021/06/30 05:07:30;;;;;;;15.90;10.55;;;;;;;25.07;57.30;94683.59;2987526;39;20084;-73
2021/06/30 05:09:37;;;;;;;14.02;10.77;;;;;;;25.22;56.90;94680.31;2991190;39;20042;-73
2021/06/30 05:11:44;;;;;;;19.25;10.88;;;;;;;25.41;56.57;94682.66;2983215;39;20027;-74
2021/06/30 05:13:50;;;;;;;14.07;11.05;;;;;;;25.58;56.23;94671.84;2994688;39;20098;-73
2021/06/30 05:15:57;;;;;;;14.15;11.93;;;;;;;25.72;55.64;94679.19;2991841;39;20047;-72
2021/06/30 05:18:03;;;;;;;17.90;11.38;;;;;;;25.77;55.56;94680.31;2991183;39;20067;-73
2021/06/30 05:20:11;;;;;;;15.13;11.13;;;;;;;25.82;55.33;94691.91;2983520;39;20063;-72
2021/06/30 05:22:17;;;;;;;20.27;12.65;;;;;;;25.70;55.47;94686.69;2982474;39;20099;-74
2021/06/30 05:24:24;;;;;;;18.13;11.75;;;;;;;25.67;55.91;94689.88;2992548;39;20280;-72
2021/06/30 05:26:31;;;;;;;15.05;12.88;;;;;;;25.79;55.57;94684.38;2981910;39;20141;-72
2021/06/30 05:28:37;;;;;;;14.63;12.18;;;;;;;25.51;55.87;94685.41;2991608;39;20135;-72
2021/06/30 05:30:44;;;;;;;15.88;12.00;;;;;;;25.29;56.75;94690.81;2992074;39;20646;-72
2021/06/30 05:32:51;;;;;;;15.30;12.43;;;;;;;25.48;56.27;94686.75;2987568;39;20091;-72
2021/06/30 05:34:57;;;;;;;21.50;13.20;;;;;;;25.43;56.73;94693.94;2992082;39;20238;-72
2021/06/30 05:37:04;;;;;;;15.10;12.68;;;;;;;25.53;56.57;94688.66;2991798;39;20449;-72
2021/06/30 05:39:10;;;;;;;19.83;13.20;;;;;;;25.62;56.49;94697.91;2991187;39;20043;-74
2021/06/30 05:41:17;;;;;;;20.15;14.35;;;;;;;25.73;55.87;94690.75;2994096;39;20089;-73
2021/06/30 05:43:23;;;;;;;15.43;12.52;;;;;;;25.85;56.00;94693.25;2981515;39;20073;-72
2021/06/30 05:45:30;;;;;;;17.40;14.07;;;;;;;26.01;55.62;94697.75;2991301;39;20384;-72
2021/06/30 05:47:37;;;;;;;15.45;13.20;;;;;;;26.18;55.61;94694.09;2990416;39;20314;-74
2021/06/30 05:49:44;;;;;;;17.65;13.60;;;;;;;26.34;55.04;94698.53;2992932;39;20086;-74
2021/06/30 05:51:51;;;;;;;16.80;14.48;;;;;;;26.41;54.64;94692.94;2992376;39;20051;-74
2021/06/30 05:53:57;;;;;;;19.35;13.40;;;;;;;26.47;54.34;94698.06;2990075;39;20056;-73
2021/06/30 05:56:05;;;;;;;18.00;13.05;;;;;;;26.57;54.41;94696.56;2991988;39;20075;-71
2021/06/30 05:58:12;;;;;;;21.02;13.02;;;;;;;26.71;54.46;94692.34;2975007;39;20187;-71
2021/06/30 06:00:21;;;;;;;18.13;13.25;;;;;;;26.81;53.65;94686.22;2990390;39;20039;-73
2021/06/30 06:02:22;;;;;;;18.45;13.10;;;;;;;26.87;53.30;94686.00;2990552;39;20112;-73
2021/06/30 06:04:29;;;;;;;17.15;13.30;;;;;;;26.96;53.39;94687.09;2992132;39;20047;-75
2021/06/30 06:06:35;;;;;;;16.48;12.45;;;;;;;26.98;53.04;94692.22;2992049;39;20128;-73
2021/06/30 06:08:42;;;;;;;19.50;13.57;;;;;;;26.95;52.90;94690.88;2992716;39;20733;-73
2021/06/30 06:10:49;;;;;;;14.85;11.60;;;;;;;27.01;52.59;94688.19;2989080;39;20162;-74
2021/06/30 06:12:55;;;;;;;19.77;13.32;;;;;;;26.70;53.34;94688.06;2991759;39;20286;-73
2021/06/30 06:15:08;;;;;;;18.13;13.23;;;;;;;26.52;53.69;94690.06;2991586;39;20397;-74
2021/06/30 06:17:14;;;;;;;19.75;12.55;;;;;;;26.57;53.26;94685.84;2981699;39;20320;-72
2021/06/30 06:19:23;;;;;;;20.17;13.68;;;;;;;26.49;53.30;94689.78;2982816;39;20067;-73
2021/06/30 06:21:32;;;;;;;14.80;12.63;;;;;;;26.52;52.83;94684.69;2980570;39;20421;-72
2021/06/30 06:23:38;;;;;;;15.45;12.32;;;;;;;26.71;53.15;94686.97;2976611;39;20152;-73
2021/06/30 06:25:45;;;;;;;16.17;12.38;;;;;;;26.78;52.62;94695.63;2992024;39;20043;-71
2021/06/30 06:27:51;;;;;;;14.48;11.82;;;;;;;26.73;52.60;94691.00;2988777;39;20361;-74
2021/06/30 06:29:59;;;;;;;17.08;12.60;;;;;;;26.67;53.14;94693.94;2992331;39;20059;-73
2021/06/30 06:32:06;;;;;;;15.05;12.57;;;;;;;26.74;52.96;94691.84;2982545;39;20079;-73
2021/06/30 06:34:19;;;;;;;15.88;11.60;;;;;;;26.89;53.11;94689.22;2990058;39;20047;-72
2021/06/30 06:36:25;;;;;;;19.38;12.48;;;;;;;26.65;53.08;94686.16;2990853;39;20046;-73
2021/06/30 06:38:32;;;;;;;16.70;12.10;;;;;;;26.84;53.08;94681.13;2983175;39;20464;-74
2021/06/30 06:40:39;;;;;;;14.18;12.27;;;;;;;26.83;53.03;94682.19;2971501;39;20113;-73
2021/06/30 06:42:46;;;;;;;16.20;12.57;;;;;;;26.94;52.91;94683.06;2978778;39;20120;-73
2021/06/30 06:44:52;;;;;;;18.02;12.23;;;;;;;26.77;52.94;94675.19;2980151;39;20175;-74
2021/06/30 06:46:59;;;;;;;14.48;11.50;;;;;;;26.77;53.28;94684.03;2978585;39;20147;-73
2021/06/30 06:49:07;;;;;;;15.55;12.27;;;;;;;26.67;52.89;94681.31;2992145;39;20054;-74
2021/06/30 06:51:13;;;;;;;14.48;11.07;;;;;;;26.89;52.79;94675.78;2984833;39;20076;-74
2021/06/30 06:53:20;;;;;;;11.10;8.90;;;;;;;26.84;51.40;94670.38;2982923;39;20110;-75
2021/06/30 06:55:27;;;;;;;15.93;10.82;;;;;;;27.02;51.57;94674.50;2982899;39;20252;-73
2021/06/30 06:57:34;;;;;;;12.85;9.90;;;;;;;27.15;51.60;94670.50;2992792;39;20071;-73
2021/06/30 06:59:40;;;;;;;16.17;10.88;;;;;;;27.36;51.34;94666.00;2987226;39;20051;-73
2021/06/30 07:01:47;;;;;;;15.00;10.68;;;;;;;27.53;51.59;94671.16;2981341;39;20116;-74
2021/06/30 07:03:54;;;;;;;11.88;10.27;;;;;;;27.54;51.45;94675.50;2992198;39;20471;-77
2021/06/30 07:06:00;;;;;;;13.63;10.70;;;;;;;27.57;51.05;94673.06;2994641;39;20075;-74
2021/06/30 07:08:07;;;;;;;16.35;10.23;;;;;;;27.70;50.86;94666.34;2987653;39;20055;-83
2021/06/30 07:10:13;;;;;;;14.80;10.95;;;;;;;27.80;50.17;94659.38;2992524;39;20039;-80
2021/06/30 07:12:20;;;;;;;19.75;11.07;;;;;;;27.86;50.09;94658.34;2992070;39;20043;-82
2021/06/30 07:14:27;;;;;;;11.05;9.65;;;;;;;27.54;49.74;94656.66;2992825;39;20400;-83
2021/06/30 07:16:34;;;;;;;14.85;10.35;;;;;;;27.51;50.06;94659.88;2986734;39;20063;-84
2021/06/30 07:18:40;;;;;;;12.75;9.27;;;;;;;27.73;49.73;94659.66;2987748;39;20307;-83
2021/06/30 07:20:47;;;;;;;15.75;9.23;;;;;;;27.98;49.33;94662.41;2983836;39;20417;-85
2021/06/30 07:22:54;;;;;;;20.55;10.13;;;;;;;28.18;49.19;94650.81;2991102;39;20140;-83
2021/06/30 07:25:02;;;;;;;19.13;9.95;;;;;;;28.31;48.10;94654.81;2989925;39;20059;-82
2021/06/30 07:27:08;;;;;;;12.40;8.90;;;;;;;28.40;48.24;94649.69;2982679;39;20055;-82
2021/06/30 07:29:15;;;;;;;12.88;10.40;;;;;;;28.58;47.70;94640.25;2992618;39;20055;-81
2021/06/30 07:31:22;;;;;;;13.77;8.45;;;;;;;28.76;47.41;94638.84;2990445;39;20055;-84
2021/06/30 07:33:29;;;;;;;14.82;9.30;;;;;;;28.68;46.86;94639.44;2990143;39;20137;-82
2021/06/30 07:35:36;;;;;;;15.88;10.18;;;;;;;28.73;46.82;94642.09;2992006;39;20487;-80
2021/06/30 07:37:42;;;;;;;13.82;9.07;;;;;;;28.92;46.98;94635.00;2975497;39;20116;-82
2021/06/30 07:39:49;;;;;;;22.77;9.82;;;;;;;28.99;46.79;94640.09;2992669;39;20051;-81
2021/06/30 07:41:55;;;;;;;12.30;9.27;;;;;;;29.08;46.46;94633.06;2994303;39;20035;-80
2021/06/30 07:44:03;;;;;;;19.45;8.88;;;;;;;29.26;46.24;94628.16;2985837;39;20052;-81
2021/06/30 07:46:05;;;;;;;17.73;9.00;;;;;;;29.33;45.37;94629.44;2991026;39;20062;-74
2021/06/30 07:48:07;;;;;;;14.38;9.30;;;;;;;29.05;46.15;94627.41;2987692;39;20498;-72
2021/06/30 07:50:09;;;;;;;16.13;10.35;;;;;;;28.96;46.78;94622.59;2990914;39;20256;-72
2021/06/30 07:52:11;;;;;;;16.88;9.00;;;;;;;29.10;46.66;94616.63;2988765;39;20094;-73
2021/06/30 07:54:12;;;;;;;16.40;9.63;;;;;;;29.19;46.88;94614.97;2991702;39;20063;-73
2021/06/30 07:56:14;;;;;;;12.20;10.35;;;;;;;29.25;46.56;94619.25;2978562;39;20057;-72
2021/06/30 07:58:18;;;;;;;13.50;10.02;;;;;;;29.31;46.30;94622.72;2993147;39;20096;-72
2021/06/30 08:00:20;;;;;;;13.30;9.80;;;;;;;29.44;45.70;94616.69;2984097;39;20055;-74
2021/06/30 08:02:22;;;;;;;11.18;8.45;;;;;;;29.55;45.34;94614.75;2989134;39;20055;-71
2021/06/30 08:04:23;;;;;;;19.98;10.10;;;;;;;29.58;45.21;94616.91;2983286;39;20093;-73
2021/06/30 08:06:25;;;;;;;12.27;9.13;;;;;;;29.74;45.27;94618.41;2983448;39;20059;-74
2021/06/30 08:08:27;;;;;;;14.98;10.20;;;;;;;29.89;45.02;94619.38;2983629;39;20044;-72
2021/06/30 08:10:29;;;;;;;16.60;9.23;;;;;;;30.04;44.16;94608.47;2983122;39;20511;-72
2021/06/30 08:12:30;;;;;;;18.45;9.70;;;;;;;30.07;44.62;94615.19;2993003;39;20055;-72
2021/06/30 08:14:33;;;;;;;22.85;11.40;;;;;;;29.95;44.78;94612.88;2984218;39;20092;-73
2021/06/30 08:16:35;;;;;;;19.98;10.20;;;;;;;29.87;45.21;94611.56;2990930;39;20044;-73
2021/06/30 08:18:37;;;;;;;16.48;10.32;;;;;;;29.77;45.12;94614.34;2983652;39;20052;-73
2021/06/30 08:20:39;;;;;;;14.38;9.77;;;;;;;29.82;45.53;94613.53;2993680;39;20479;-73
2021/06/30 08:22:42;;;;;;;15.53;9.63;;;;;;;29.80;45.98;94606.50;2992695;39;20071;-71
2021/06/30 08:24:45;;;;;;;16.20;9.55;;;;;;;29.96;45.61;94609.06;2983278;39;20063;-73
2021/06/30 08:26:47;;;;;;;15.40;9.93;;;;;;;29.99;44.83;94605.81;2991690;39;20098;-74
2021/06/30 08:28:49;;;;;;;11.00;9.35;;;;;;;29.97;44.82;94602.59;2982264;39;20297;-74
2021/06/30 08:30:51;;;;;;;12.07;9.13;;;;;;;29.96;44.61;94592.84;2992150;39;20414;-73
2021/06/30 08:32:53;;;;;;;12.20;8.90;;;;;;;30.07;44.68;94601.69;2977101;39;20048;-73
2021/06/30 08:34:54;;;;;;;15.02;9.68;;;;;;;30.12;44.57;94599.75;2992274;39;20057;-71
2021/06/30 08:37:02;;;;;;;16.63;9.52;;;;;;;30.11;45.04;94598.13;2984275;39;20245;-71
2021/06/30 08:39:05;;;;;;;15.23;8.80;;;;;;;30.17;44.72;94607.78;2992840;39;20067;-73
2021/06/30 08:41:06;;;;;;;11.73;9.88;;;;;;;30.24;45.01;94598.53;2983517;39;20127;-73
2021/06/30 08:43:08;;;;;;;13.43;9.25;;;;;;;30.03;44.96;94601.47;2992926;39;20357;-72
2021/06/30 08:45:11;;;;;;;11.60;9.57;;;;;;;30.05;44.88;94601.97;2991905;39;20055;-73
2021/06/30 08:47:13;;;;;;;13.43;9.55;;;;;;;29.53;46.01;94598.03;2977443;39;20361;-71
2021/06/30 08:49:18;;;;;;;14.93;9.55;;;;;;;29.52;46.54;94601.81;2985443;39;20059;-81
2021/06/30 08:51:25;;;;;;;17.35;10.07;;;;;;;29.64;46.22;94602.25;2987313;39;20047;-81
2021/06/30 08:53:27;;;;;;;13.63;9.63;;;;;;;29.55;45.97;94601.25;2989693;39;20062;-81
2021/06/30 08:55:29;;;;;;;12.65;9.68;;;;;;;29.42;46.32;94599.97;2979242;39;20136;-83
2021/06/30 08:57:32;;;;;;;13.85;9.73;;;;;;;29.64;46.19;94596.84;2992064;39;20326;-80
2021/06/30 08:59:34;;;;;;;14.43;10.10;;;;;;;29.80;46.09;94598.38;2993762;39;20142;-82
2021/06/30 09:01:35;;;;;;;16.65;9.30;;;;;;;29.77;45.88;94598.97;2983289;39;20232;-80
2021/06/30 09:03:44;;;;;;;15.55;9.35;;;;;;;29.82;45.98;94592.72;2988688;39;20091;-80
2021/06/30 09:07:56;;;;;;;12.98;9.27;;;;;;;30.24;45.33;94593.16;2977076;39;20060;-82
2021/06/30 09:09:58;;;;;;;12.23;8.67;;;;;;;30.43;45.05;94594.06;2986511;39;20058;-79
2021/06/30 09:12:00;;;;;;;11.95;8.77;;;;;;;30.51;44.77;94590.72;2981800;39;20061;-83
2021/06/30 09:14:12;;;;;;;14.60;9.35;;;;;;;30.47;44.31;94586.19;2992021;39;20367;-81
2021/06/30 09:16:14;;;;;;;12.10;9.15;;;;;;;30.40;44.17;94583.84;2987490;39;20067;-80
2021/06/30 09:18:28;;;;;;;13.32;9.52;;;;;;;30.50;44.14;94578.31;2975598;39;20121;-80
2021/06/30 09:20:30;;;;;;;11.85;9.68;;;;;;;30.48;45.06;94585.91;2990019;39;20076;-76
2021/06/30 09:22:51;;;;;;;12.50;9.23;;;;;;;30.65;44.45;94582.72;2994022;39;20061;-72
2021/06/30 09:25:01;;;;;;;13.07;9.30;;;;;;;30.45;44.84;94578.34;2983646;39;20056;-73
2021/06/30 09:27:03;;;;;;;15.07;9.13;;;;;;;30.53;44.36;94577.72;2992283;39;20043;-73
2021/06/30 09:29:08;;;;;;;15.07;9.27;;;;;;;30.60;43.85;94580.88;2982618;39;20109;-73
2021/06/30 09:31:10;;;;;;;14.05;9.70;;;;;;;30.76;44.15;94578.81;2985249;39;20063;-74
2021/06/30 09:33:11;;;;;;;15.05;9.13;;;;;;;30.99;44.20;94579.09;2994126;39;20074;-72
2021/06/30 09:35:33;;;;;;;11.40;9.27;;;;;;;30.98;43.31;94580.22;2990229;39;20090;-73
2021/06/30 09:37:35;;;;;;;13.40;9.68;;;;;;;30.79;43.62;94574.72;2980908;39;20048;-73
2021/06/30 09:39:58;;;;;;;11.75;9.45;;;;;;;30.29;44.41;94566.13;2992121;39;20059;-73
2021/06/30 09:42:13;;;;;;;17.60;9.90;;;;;;;30.55;44.02;94562.03;2988941;39;20075;-74
2021/06/30 09:44:21;;;;;;;13.55;8.30;;;;;;;30.93;43.47;94559.44;2982511;39;20051;-74
2021/06/30 09:46:25;;;;;;;13.68;8.95;;;;;;;31.25;43.08;94560.59;2991528;39;20049;-74